Time;durP1;ratioP1;P1;durP2;ratioP2;P2;SDS_P1;SDS_P2;PMS_P1;PMS_P2;Temp;Humidity;BMP_temperature;BMP_pressure;BME280_temperature;BME280_humidity;BME280_pressure;Samples;Min_cycle;Max_cycle;Signal;HPM_P1;HPM_P2
2023/03/09 00:00:46;;;;;;;8.33;3.50;;;;;;;;;;5052329;28;20642;-76
2023/03/09 00:03:15;;;;;;;7.90;3.53;;;;;;;;;;5051304;28;20236;-77
2023/03/09 00:05:52;;;;;;;7.00;3.83;;;;;;;;;;5050751;28;20215;-76
2023/03/09 00:08:18;;;;;;;4.90;3.03;;;;;;;;;;5051516;28;20184;-77
2023/03/09 00:10:45;;;;;;;5.60;3.87;;;;;;;;;;5051644;28;20186;-76
2023/03/09 00:13:11;;;;;;;7.43;4.23;;;;;;;;;;5055046;28;20202;-75
2023/03/09 00:15:37;;;;;;;3.60;3.00;;;;;;;;;;5051994;28;20201;-74
2023/03/09 00:18:03;;;;;;;3.47;2.60;;;;;;;;;;5053739;28;20194;-74
2023/03/09 00:20:29;;;;;;;5.77;3.53;;;;;;;;;;5060687;28;20209;-74
2023/03/09 00:22:55;;;;;;;3.93;2.80;;;;;;;;;;5052369;28;20205;-74
2023/03/09 00:25:22;;;;;;;3.43;2.60;;;;;;;;;;5050925;28;20178;-74
2023/03/09 00:27:49;;;;;;;2.97;2.40;;;;;;;;;;5060344;28;20178;-74
2023/03/09 00:30:16;;;;;;;6.63;4.27;;;;;;;;;;5052654;28;20177;-74
2023/03/09 00:32:42;;;;;;;3.57;2.60;;;;;;;;;;5052787;28;20197;-74
2023/03/09 00:35:09;;;;;;;2.47;1.90;;;;;;;;;;5064693;28;20554;-74
2023/03/09 00:37:37;;;;;;;2.33;1.60;;;;;;;;;;5052124;28;20732;-75
2023/03/09 00:40:06;;;;;;;3.27;2.20;;;;;;;;;;5066423;28;20304;-74
2023/03/09 00:42:32;;;;;;;2.00;1.80;;;;;;;;;;5046154;28;20692;-74
2023/03/09 00:45:00;;;;;;;2.80;2.10;;;;;;;;;;5049513;28;20193;-74
2023/03/09 00:47:27;;;;;;;4.77;2.63;;;;;;;;;;5047348;28;20219;-74
2023/03/09 00:49:53;;;;;;;3.87;2.10;;;;;;;;;;5048752;28;20214;-74
2023/03/09 00:52:19;;;;;;;4.77;2.23;;;;;;;;;;5046592;28;20218;-74
2023/03/09 00:54:46;;;;;;;2.10;1.90;;;;;;;;;;5028836;28;20283;-74
2023/03/09 00:57:12;;;;;;;5.37;2.80;;;;;;;;;;5049375;28;20181;-74
2023/03/09 00:59:38;;;;;;;6.47;3.40;;;;;;;;;;5050649;28;20210;-74
2023/03/09 01:02:05;;;;;;;5.77;3.80;;;;;;;;;;5049527;28;21632;-74
2023/03/09 01:04:33;;;;;;;4.20;2.67;;;;;;;;;;5049906;28;20182;-74
2023/03/09 01:06:59;;;;;;;6.67;2.90;;;;;;;;;;5051250;28;20251;-74
2023/03/09 01:09:26;;;;;;;5.33;2.83;;;;;;;;;;5046027;28;20174;-74
2023/03/09 01:11:52;;;;;;;3.00;2.70;;;;;;;;;;5030696;28;20288;-74
2023/03/09 01:14:18;;;;;;;6.77;2.70;;;;;;;;;;5045314;28;20174;-74
2023/03/09 01:16:44;;;;;;;3.47;2.20;;;;;;;;;;5050053;28;20187;-74
2023/03/09 01:19:10;;;;;;;4.17;2.10;;;;;;;;;;5050491;28;20212;-74
2023/03/09 01:21:36;;;;;;;2.83;1.90;;;;;;;;;;5049286;28;20661;-74
2023/03/09 01:24:03;;;;;;;3.73;2.10;;;;;;;;;;5050002;28;20194;-74
2023/03/09 01:26:29;;;;;;;2.87;1.90;;;;;;;;;;5048828;28;20197;-74
2023/03/09 01:28:55;;;;;;;4.17;2.50;;;;;;;;;;5055116;28;20177;-73
2023/03/09 01:31:21;;;;;;;4.13;2.23;;;;;;;;;;5062313;28;20202;-74
2023/03/09 01:33:48;;;;;;;3.77;2.30;;;;;;;;;;5049823;28;20197;-74
2023/03/09 01:36:16;;;;;;;5.50;2.90;;;;;;;;;;5048773;28;20522;-74
2023/03/09 01:38:43;;;;;;;4.60;1.93;;;;;;;;;;5056085;28;20200;-74
2023/03/09 01:41:10;;;;;;;3.03;1.90;;;;;;;;;;5054321;28;20170;-74
2023/03/09 01:43:39;;;;;;;5.00;1.63;;;;;;;;;;5049908;28;20193;-74
2023/03/09 01:46:21;;;;;;;2.80;1.43;;;;;;;;;;5049272;28;20177;-77
2023/03/09 01:48:49;;;;;;;3.07;2.00;;;;;;;;;;5051143;28;20276;-74
2023/03/09 01:51:15;;;;;;;2.73;1.50;;;;;;;;;;5048706;28;20654;-74
2023/03/09 01:53:41;;;;;;;1.43;1.30;;;;;;;;;;5049295;28;20206;-74
2023/03/09 01:56:07;;;;;;;2.47;1.20;;;;;;;;;;5043146;28;20191;-74
2023/03/09 01:58:34;;;;;;;1.97;1.10;;;;;;;;;;5032057;28;20751;-74
2023/03/09 02:01:00;;;;;;;2.63;1.10;;;;;;;;;;5048481;28;20643;-74
2023/03/09 02:03:30;;;;;;;1.43;1.00;;;;;;;;;;5047819;28;20257;-74
2023/03/09 02:06:03;;;;;;;2.70;2.50;;;;;;;;;;5032183;28;20253;-74
2023/03/09 02:08:30;;;;;;;2.70;1.50;;;;;;;;;;5047653;28;20178;-74
2023/03/09 02:10:59;;;;;;;1.97;1.00;;;;;;;;;;5048660;28;20198;-74
2023/03/09 02:13:31;;;;;;;1.57;1.10;;;;;;;;;;5047436;28;20681;-74
2023/03/09 02:15:57;;;;;;;1.93;1.10;;;;;;;;;;5048222;28;20186;-74
2023/03/09 02:18:24;;;;;;;3.00;1.30;;;;;;;;;;5032314;28;20193;-77
2023/03/09 02:21:09;;;;;;;1.67;0.90;;;;;;;;;;5049803;28;20178;-74
2023/03/09 02:23:35;;;;;;;2.10;1.33;;;;;;;;;;5054449;28;20193;-74
2023/03/09 02:26:20;;;;;;;2.67;1.60;;;;;;;;;;5032030;28;20649;-74
2023/03/09 02:28:48;;;;;;;2.90;1.50;;;;;;;;;;5028684;28;20182;-74
2023/03/09 02:31:15;;;;;;;2.20;1.50;;;;;;;;;;5034336;28;20166;-74
2023/03/09 02:33:41;;;;;;;3.10;1.53;;;;;;;;;;5034768;28;20299;-75
2023/03/09 02:36:08;;;;;;;3.73;1.73;;;;;;;;;;5012237;28;20190;-74
2023/03/09 02:38:38;;;;;;;1.90;1.20;;;;;;;;;;5051231;28;20201;-74
2023/03/09 02:41:07;;;;;;;1.40;1.10;;;;;;;;;;5048522;28;20547;-74
2023/03/09 02:43:35;;;;;;;3.07;1.30;;;;;;;;;;5051667;28;20277;-74
2023/03/09 02:46:02;;;;;;;2.60;1.10;;;;;;;;;;5048040;28;20216;-74
2023/03/09 02:48:29;;;;;;;1.37;1.10;;;;;;;;;;5048472;28;20657;-74
2023/03/09 02:50:56;;;;;;;2.17;1.30;;;;;;;;;;5046061;28;20225;-74
2023/03/09 02:53:23;;;;;;;3.47;1.27;;;;;;;;;;5038473;28;20201;-74
2023/03/09 02:55:49;;;;;;;2.43;1.30;;;;;;;;;;5055904;28;20988;-75
2023/03/09 02:58:15;;;;;;;2.60;1.30;;;;;;;;;;5031817;28;20206;-74
2023/03/09 03:00:41;;;;;;;3.07;1.30;;;;;;;;;;5052155;28;20174;-74
2023/03/09 03:03:08;;;;;;;3.47;1.50;;;;;;;;;;5061381;28;20198;-74
2023/03/09 03:05:34;;;;;;;2.40;1.50;;;;;;;;;;5051924;28;20177;-74
2023/03/09 03:08:00;;;;;;;1.90;1.40;;;;;;;;;;5035592;28;20173;-74
2023/03/09 03:10:27;;;;;;;4.37;1.40;;;;;;;;;;5051792;28;20212;-74
2023/03/09 03:12:54;;;;;;;1.93;1.30;;;;;;;;;;5063473;28;20193;-73
2023/03/09 03:15:20;;;;;;;2.20;1.30;;;;;;;;;;5057818;28;20177;-74
2023/03/09 03:17:46;;;;;;;1.83;1.10;;;;;;;;;;5053518;28;20211;-74
2023/03/09 03:20:14;;;;;;;2.77;1.40;;;;;;;;;;5051251;28;20686;-74
2023/03/09 03:22:42;;;;;;;2.37;1.30;;;;;;;;;;5050641;28;20208;-74
2023/03/09 03:25:08;;;;;;;2.33;1.10;;;;;;;;;;5051369;28;20185;-75
2023/03/09 03:27:39;;;;;;;1.87;1.30;;;;;;;;;;5052213;28;20181;-74
2023/03/09 03:30:06;;;;;;;1.90;1.30;;;;;;;;;;5055537;28;20182;-74
2023/03/09 03:32:34;;;;;;;2.20;1.30;;;;;;;;;;5048978;28;20204;-74
2023/03/09 03:35:01;;;;;;;2.60;1.20;;;;;;;;;;5050607;28;20736;-74
2023/03/09 03:37:27;;;;;;;2.60;1.10;;;;;;;;;;5030656;28;20187;-74
2023/03/09 03:39:53;;;;;;;1.67;1.00;;;;;;;;;;5030957;28;20206;-74
2023/03/09 03:42:20;;;;;;;1.63;1.00;;;;;;;;;;5030529;28;20202;-75
2023/03/09 03:44:46;;;;;;;2.07;1.30;;;;;;;;;;5048242;28;20544;-74
2023/03/09 03:47:15;;;;;;;3.83;1.47;;;;;;;;;;5054308;28;20614;-74
2023/03/09 03:49:42;;;;;;;2.60;1.70;;;;;;;;;;5050022;28;20236;-74
2023/03/09 03:52:09;;;;;;;2.07;1.40;;;;;;;;;;5052750;28;20712;-74
2023/03/09 03:54:35;;;;;;;2.60;1.50;;;;;;;;;;5050318;28;20205;-74
2023/03/09 03:57:03;;;;;;;2.17;1.47;;;;;;;;;;5040742;28;20187;-74
2023/03/09 03:59:30;;;;;;;4.50;1.60;;;;;;;;;;5051062;28;20715;-74
2023/03/09 04:01:56;;;;;;;5.53;2.10;;;;;;;;;;5052533;28;20181;-74
2023/03/09 04:04:24;;;;;;;2.57;1.90;;;;;;;;;;5050263;28;20220;-74
2023/03/09 04:06:56;;;;;;;3.90;1.77;;;;;;;;;;5052893;28;20242;-74
2023/03/09 04:09:25;;;;;;;2.03;1.70;;;;;;;;;;5050410;28;20186;-74
2023/03/09 04:11:51;;;;;;;2.73;1.83;;;;;;;;;;5050509;28;20235;-74
2023/03/09 04:14:17;;;;;;;2.40;1.90;;;;;;;;;;5049398;28;20269;-74
2023/03/09 04:16:43;;;;;;;3.97;2.00;;;;;;;;;;5050279;28;20194;-74
2023/03/09 04:19:10;;;;;;;3.47;1.90;;;;;;;;;;5051911;28;20210;-74
2023/03/09 04:21:38;;;;;;;3.13;2.20;;;;;;;;;;5040572;28;20655;-74
2023/03/09 04:24:05;;;;;;;2.53;2.00;;;;;;;;;;5049428;28;20246;-74
2023/03/09 04:26:32;;;;;;;3.10;2.57;;;;;;;;;;5030031;28;20292;-74
2023/03/09 04:29:07;;;;;;;3.33;2.47;;;;;;;;;;5049707;28;20284;-74
2023/03/09 04:31:33;;;;;;;3.53;2.50;;;;;;;;;;5049421;28;20201;-74
2023/03/09 04:34:01;;;;;;;4.07;2.70;;;;;;;;;;5049528;28;20212;-74
2023/03/09 04:36:27;;;;;;;3.20;2.50;;;;;;;;;;5049870;28;20654;-74
2023/03/09 04:38:54;;;;;;;2.97;2.20;;;;;;;;;;5049099;28;20212;-74
2023/03/09 04:41:22;;;;;;;2.40;2.07;;;;;;;;;;5049680;28;20186;-74
2023/03/09 04:43:52;;;;;;;7.57;3.53;;;;;;;;;;5039731;28;20628;-74
2023/03/09 04:46:19;;;;;;;5.33;2.40;;;;;;;;;;5049537;28;20178;-74
2023/03/09 04:48:46;;;;;;;3.67;2.47;;;;;;;;;;5050041;28;20240;-74
2023/03/09 04:51:12;;;;;;;3.90;2.23;;;;;;;;;;5050554;28;20259;-74
2023/03/09 04:53:39;;;;;;;3.30;2.03;;;;;;;;;;5048110;28;20296;-73
2023/03/09 04:56:05;;;;;;;2.60;1.97;;;;;;;;;;5029469;28;20197;-74
2023/03/09 04:58:37;;;;;;;4.40;2.07;;;;;;;;;;5046318;28;20217;-74
2023/03/09 05:01:04;;;;;;;5.00;2.53;;;;;;;;;;5051649;28;20178;-74
2023/03/09 05:03:31;;;;;;;8.90;2.50;;;;;;;;;;5033396;28;20362;-74
2023/03/09 05:05:57;;;;;;;4.30;2.43;;;;;;;;;;5028625;28;20522;-76
2023/03/09 05:08:28;;;;;;;3.80;2.20;;;;;;;;;;5047900;28;20200;-76
2023/03/09 05:10:54;;;;;;;4.50;2.17;;;;;;;;;;5030727;28;20192;-75
2023/03/09 05:13:20;;;;;;;3.67;2.30;;;;;;;;;;5048716;28;20419;-76
2023/03/09 05:15:46;;;;;;;5.47;2.20;;;;;;;;;;5053108;28;20448;-76
2023/03/09 05:18:13;;;;;;;3.47;2.10;;;;;;;;;;5056137;28;20611;-76
2023/03/09 05:20:39;;;;;;;4.13;2.10;;;;;;;;;;5043568;28;20190;-76
2023/03/09 05:23:07;;;;;;;4.53;2.00;;;;;;;;;;5040642;28;20194;-76
2023/03/09 05:25:34;;;;;;;3.27;1.90;;;;;;;;;;5048862;28;20178;-76
2023/03/09 05:28:04;;;;;;;5.23;2.37;;;;;;;;;;5049335;28;20174;-76
2023/03/09 05:30:32;;;;;;;5.03;2.00;;;;;;;;;;5044001;28;20188;-77
2023/03/09 05:32:59;;;;;;;4.50;2.20;;;;;;;;;;5048478;28;20404;-76
2023/03/09 05:35:27;;;;;;;4.00;2.00;;;;;;;;;;5044551;28;20189;-76
2023/03/09 05:37:53;;;;;;;4.43;2.10;;;;;;;;;;5050150;28;20320;-76
2023/03/09 05:40:22;;;;;;;4.87;2.40;;;;;;;;;;5047322;28;20178;-76
2023/03/09 05:42:53;;;;;;;7.13;2.30;;;;;;;;;;5027004;28;20724;-76
2023/03/09 05:45:19;;;;;;;8.43;2.00;;;;;;;;;;5045706;28;20232;-76
2023/03/09 05:47:46;;;;;;;6.17;2.30;;;;;;;;;;5046891;28;20209;-73
2023/03/09 05:50:12;;;;;;;5.13;2.20;;;;;;;;;;5050061;28;20194;-73
2023/03/09 05:52:39;;;;;;;6.47;2.50;;;;;;;;;;5045905;28;20205;-74
2023/03/09 05:55:05;;;;;;;6.90;2.40;;;;;;;;;;5052330;28;20178;-77
2023/03/09 05:57:33;;;;;;;5.03;2.30;;;;;;;;;;5046665;28;20216;-76
2023/03/09 06:00:00;;;;;;;7.83;2.70;;;;;;;;;;5042292;28;20591;-73
2023/03/09 06:02:39;;;;;;;6.60;2.53;;;;;;;;;;5047649;28;20206;-76
2023/03/09 06:05:06;;;;;;;8.17;2.33;;;;;;;;;;5028470;28;20190;-77
2023/03/09 06:07:33;;;;;;;7.03;2.50;;;;;;;;;;5057724;28;20201;-75
2023/03/09 06:10:01;;;;;;;7.33;2.23;;;;;;;;;;5047427;28;20188;-75
2023/03/09 06:12:27;;;;;;;6.18;2.50;;;;;;;;;;5045283;28;20949;-76
2023/03/09 06:14:55;;;;;;;8.33;2.30;;;;;;;;;;5044506;28;20184;-75
2023/03/09 06:17:25;;;;;;;5.50;2.23;;;;;;;;;;5046566;28;20273;-75
2023/03/09 06:19:53;;;;;;;9.33;2.60;;;;;;;;;;5047742;28;20201;-76
2023/03/09 06:22:20;;;;;;;8.80;2.27;;;;;;;;;;5047882;28;20209;-75
2023/03/09 06:24:48;;;;;;;8.73;2.47;;;;;;;;;;5047699;28;21025;-75
2023/03/09 06:27:15;;;;;;;7.60;2.20;;;;;;;;;;5048612;28;20218;-76
2023/03/09 06:29:41;;;;;;;8.47;2.70;;;;;;;;;;5049970;28;20537;-75
2023/03/09 06:32:09;;;;;;;9.17;2.50;;;;;;;;;;5048040;28;20584;-75
2023/03/09 06:34:37;;;;;;;9.00;2.40;;;;;;;;;;5048411;28;20194;-75
2023/03/09 06:37:05;;;;;;;8.40;2.10;;;;;;;;;;5045620;28;20224;-77
2023/03/09 06:39:32;;;;;;;8.40;2.33;;;;;;;;;;5029178;28;20213;-76
2023/03/09 06:41:59;;;;;;;7.70;2.37;;;;;;;;;;5048102;28;20269;-74
2023/03/09 06:44:33;;;;;;;9.33;2.50;;;;;;;;;;5047462;28;20273;-74
2023/03/09 06:47:01;;;;;;;8.00;2.40;;;;;;;;;;5048576;28;20248;-75
2023/03/09 06:49:29;;;;;;;9.80;2.87;;;;;;;;;;5047578;28;20218;-77
2023/03/09 06:51:58;;;;;;;8.37;2.40;;;;;;;;;;5046556;28;20215;-75
2023/03/09 06:54:25;;;;;;;8.63;2.50;;;;;;;;;;5048961;28;20731;-75
2023/03/09 06:57:00;;;;;;;7.17;2.20;;;;;;;;;;5049214;28;20185;-76
2023/03/09 06:59:30;;;;;;;8.70;2.20;;;;;;;;;;5047530;28;20209;-75
2023/03/09 07:01:58;;;;;;;4.83;2.10;;;;;;;;;;5047403;28;20467;-76
2023/03/09 07:04:24;;;;;;;10.47;2.40;;;;;;;;;;5054743;28;20186;-77
2023/03/09 07:06:50;;;;;;;7.13;2.20;;;;;;;;;;5046234;28;20181;-77
2023/03/09 07:09:16;;;;;;;5.83;2.00;;;;;;;;;;5044782;28;20577;-76
2023/03/09 07:11:42;;;;;;;10.00;2.47;;;;;;;;;;5046636;28;20182;-76
2023/03/09 07:14:09;;;;;;;9.43;2.17;;;;;;;;;;5045092;28;20218;-76
2023/03/09 07:16:35;;;;;;;10.03;2.00;;;;;;;;;;5043340;28;20186;-76
2023/03/09 07:19:01;;;;;;;7.73;2.10;;;;;;;;;;5043338;28;20206;-76
2023/03/09 07:21:27;;;;;;;6.90;2.50;;;;;;;;;;5045949;28;20174;-76
2023/03/09 07:23:53;;;;;;;8.20;2.20;;;;;;;;;;5047614;28;20205;-76
2023/03/09 07:26:20;;;;;;;9.60;2.53;;;;;;;;;;5047937;28;20182;-76
2023/03/09 07:28:47;;;;;;;8.53;2.80;;;;;;;;;;5045151;28;20641;-76
2023/03/09 07:31:13;;;;;;;8.90;2.13;;;;;;;;;;5047673;28;20534;-77
2023/03/09 07:33:40;;;;;;;6.87;2.33;;;;;;;;;;5038510;28;20224;-76
2023/03/09 07:36:07;;;;;;;8.70;2.60;;;;;;;;;;5046607;28;20186;-76
2023/03/09 07:38:33;;;;;;;8.77;2.43;;;;;;;;;;5049721;28;20255;-76
2023/03/09 07:41:00;;;;;;;6.60;2.27;;;;;;;;;;5051058;28;20186;-76
2023/03/09 07:43:26;;;;;;;11.47;2.67;;;;;;;;;;5048510;28;20752;-75
2023/03/09 07:46:05;;;;;;;11.50;2.37;;;;;;;;;;5050012;28;20247;-75
2023/03/09 07:48:31;;;;;;;8.30;2.20;;;;;;;;;;5051266;28;20173;-76
2023/03/09 07:50:58;;;;;;;7.73;2.13;;;;;;;;;;5051142;28;21937;-78
2023/03/09 07:53:24;;;;;;;7.73;2.00;;;;;;;;;;5051091;28;20310;-78
2023/03/09 07:55:57;;;;;;;5.23;2.07;;;;;;;;;;5040878;28;20198;-78
2023/03/09 07:58:23;;;;;;;6.60;2.20;;;;;;;;;;5050323;28;20914;-78
2023/03/09 08:00:49;;;;;;;8.23;2.40;;;;;;;;;;5046797;28;20603;-77
2023/03/09 08:03:16;;;;;;;5.70;2.07;;;;;;;;;;5049138;28;20308;-78
2023/03/09 08:05:42;;;;;;;8.93;1.83;;;;;;;;;;5049105;28;20698;-78
2023/03/09 08:08:08;;;;;;;6.30;2.00;;;;;;;;;;5050216;28;20178;-78
2023/03/09 08:10:34;;;;;;;9.07;2.07;;;;;;;;;;5032856;28;20177;-78
2023/03/09 08:13:00;;;;;;;7.90;2.10;;;;;;;;;;5048453;28;20208;-78
2023/03/09 08:15:27;;;;;;;6.83;2.27;;;;;;;;;;5050800;28;21352;-78
2023/03/09 08:17:53;;;;;;;9.63;2.10;;;;;;;;;;5047721;28;20268;-77
2023/03/09 08:20:19;;;;;;;6.00;1.80;;;;;;;;;;5050165;28;20241;-77
2023/03/09 08:22:45;;;;;;;7.07;1.77;;;;;;;;;;5048736;28;20216;-78
2023/03/09 08:25:14;;;;;;;5.70;1.90;;;;;;;;;;5049965;28;20178;-78
2023/03/09 08:27:41;;;;;;;5.13;1.70;;;;;;;;;;5049771;28;20300;-78
2023/03/09 08:30:07;;;;;;;6.67;1.93;;;;;;;;;;5049911;28;20189;-78
2023/03/09 08:32:34;;;;;;;5.23;1.80;;;;;;;;;;5050065;28;20280;-78
2023/03/09 08:35:00;;;;;;;5.57;1.83;;;;;;;;;;5031216;28;20611;-79
2023/03/09 08:37:26;;;;;;;8.23;2.20;;;;;;;;;;5047450;28;20209;-78
2023/03/09 08:39:52;;;;;;;4.67;1.97;;;;;;;;;;5032453;28;20571;-78
2023/03/09 08:42:18;;;;;;;5.57;2.10;;;;;;;;;;5048396;28;20320;-78
2023/03/09 08:44:45;;;;;;;5.37;2.10;;;;;;;;;;5048184;28;20359;-78
2023/03/09 08:47:11;;;;;;;7.07;2.50;;;;;;;;;;5045808;28;20182;-78
2023/03/09 08:49:40;;;;;;;5.67;2.20;;;;;;;;;;5048940;28;20182;-78
2023/03/09 08:52:07;;;;;;;8.47;2.60;;;;;;;;;;5029048;28;20296;-77
2023/03/09 08:54:33;;;;;;;9.07;4.53;;;;;;;;;;5049793;28;20193;-78
2023/03/09 08:56:59;;;;;;;5.87;3.00;;;;;;;;;;5045946;28;20210;-78
2023/03/09 08:59:25;;;;;;;6.47;2.43;;;;;;;;;;5049755;28;20212;-78
2023/03/09 09:01:53;;;;;;;7.13;2.77;;;;;;;;;;5032995;28;20210;-78
2023/03/09 09:04:19;;;;;;;8.67;2.70;;;;;;;;;;5050216;28;20193;-78
2023/03/09 09:06:45;;;;;;;8.97;2.33;;;;;;;;;;5047062;28;20179;-78
2023/03/09 09:09:11;;;;;;;5.07;2.13;;;;;;;;;;5049842;28;20173;-79
2023/03/09 09:11:38;;;;;;;6.90;2.63;;;;;;;;;;5049962;28;20232;-79
2023/03/09 09:14:04;;;;;;;7.80;2.50;;;;;;;;;;5050541;28;20251;-79
2023/03/09 09:16:30;;;;;;;7.77;2.30;;;;;;;;;;5049780;28;20284;-78
2023/03/09 09:18:56;;;;;;;6.63;2.20;;;;;;;;;;5049394;28;20189;-78
2023/03/09 09:21:23;;;;;;;11.37;3.10;;;;;;;;;;5055301;28;20701;-81
2023/03/09 09:23:49;;;;;;;11.23;2.70;;;;;;;;;;5052049;28;20207;-79
2023/03/09 09:26:16;;;;;;;6.33;2.10;;;;;;;;;;5064552;28;20178;-80
2023/03/09 09:28:42;;;;;;;6.63;2.43;;;;;;;;;;5053189;28;20235;-80
2023/03/09 09:31:12;;;;;;;7.10;2.37;;;;;;;;;;5053440;28;20184;-80
2023/03/09 09:33:39;;;;;;;7.23;2.20;;;;;;;;;;5039269;28;20204;-80
2023/03/09 09:36:09;;;;;;;6.63;2.23;;;;;;;;;;5050563;28;20192;-80
2023/03/09 09:38:35;;;;;;;6.20;2.33;;;;;;;;;;5043979;28;20206;-81
2023/03/09 09:41:03;;;;;;;10.03;2.43;;;;;;;;;;5049616;28;20173;-80
2023/03/09 09:43:31;;;;;;;8.13;2.20;;;;;;;;;;5045956;28;20206;-81
2023/03/09 09:45:59;;;;;;;6.67;2.10;;;;;;;;;;5048067;28;20189;-81
2023/03/09 09:48:26;;;;;;;7.47;2.00;;;;;;;;;;5050426;28;20177;-81
2023/03/09 09:50:55;;;;;;;7.27;2.10;;;;;;;;;;5031027;28;20665;-81
2023/03/09 09:53:28;;;;;;;6.33;1.90;;;;;;;;;;5050066;28;20212;-81
2023/03/09 09:55:54;;;;;;;8.43;2.33;;;;;;;;;;5048214;28;20269;-81
2023/03/09 09:58:32;;;;;;;6.63;2.17;;;;;;;;;;5048311;28;20182;-81
2023/03/09 10:01:02;;;;;;;7.10;2.10;;;;;;;;;;5049939;28;20182;-81
2023/03/09 10:03:38;;;;;;;6.80;2.13;;;;;;;;;;5032472;28;20198;-80
2023/03/09 10:06:26;;;;;;;11.10;2.30;;;;;;;;;;5050054;28;20212;-81
2023/03/09 10:08:52;;;;;;;10.70;2.40;;;;;;;;;;5059287;28;20220;-80
2023/03/09 10:11:27;;;;;;;8.87;2.43;;;;;;;;;;5030007;28;20417;-80
2023/03/09 10:14:13;;;;;;;10.87;2.27;;;;;;;;;;5040271;28;20208;-80
2023/03/09 10:16:43;;;;;;;8.90;2.50;;;;;;;;;;5009449;28;20197;-80
2023/03/09 10:19:16;;;;;;;6.97;2.20;;;;;;;;;;5046376;28;20201;-80
2023/03/09 10:21:46;;;;;;;9.70;2.13;;;;;;;;;;5046391;28;20189;-80
2023/03/09 10:24:24;;;;;;;7.53;2.50;;;;;;;;;;5048495;28;20704;-80
2023/03/09 10:26:57;;;;;;;7.70;2.10;;;;;;;;;;5042090;28;20178;-80
2023/03/09 10:29:38;;;;;;;12.70;2.37;;;;;;;;;;5052078;28;20575;-80
2023/03/09 10:32:07;;;;;;;6.83;2.00;;;;;;;;;;5037784;28;20186;-81
2023/03/09 10:34:39;;;;;;;8.27;2.23;;;;;;;;;;5049575;28;20223;-81
2023/03/09 10:37:16;;;;;;;6.40;2.20;;;;;;;;;;5045691;28;20433;-80
2023/03/09 10:39:46;;;;;;;10.07;2.37;;;;;;;;;;5050075;28;20221;-80
2023/03/09 10:42:21;;;;;;;10.17;2.60;;;;;;;;;;5049354;28;20198;-81
2023/03/09 10:45:01;;;;;;;6.50;2.33;;;;;;;;;;5049966;28;20189;-80
2023/03/09 10:47:47;;;;;;;9.83;2.50;;;;;;;;;;5052883;28;20209;-80
2023/03/09 10:50:14;;;;;;;7.70;2.00;;;;;;;;;;5047558;28;20186;-80
2023/03/09 10:52:41;;;;;;;7.37;2.20;;;;;;;;;;5046445;28;20555;-80
2023/03/09 10:55:30;;;;;;;11.67;2.80;;;;;;;;;;5048044;28;20185;-80
2023/03/09 10:58:00;;;;;;;7.70;2.50;;;;;;;;;;5038985;28;20524;-80
2023/03/09 11:00:27;;;;;;;6.70;2.20;;;;;;;;;;5031219;28;20214;-80
2023/03/09 11:02:55;;;;;;;7.13;2.13;;;;;;;;;;5045342;28;20209;-80
2023/03/09 11:05:22;;;;;;;5.17;1.77;;;;;;;;;;5046656;28;20185;-80
2023/03/09 11:07:55;;;;;;;6.23;2.20;;;;;;;;;;5047499;28;20182;-79
2023/03/09 11:10:24;;;;;;;7.27;2.53;;;;;;;;;;5041198;28;20567;-82
2023/03/09 11:12:50;;;;;;;9.07;2.40;;;;;;;;;;5048381;28;20230;-80
2023/03/09 11:15:16;;;;;;;7.13;2.20;;;;;;;;;;5051326;28;20189;-76
2023/03/09 11:17:44;;;;;;;7.37;1.90;;;;;;;;;;5049694;28;20277;-79
2023/03/09 11:20:13;;;;;;;6.33;1.90;;;;;;;;;;5050170;28;20508;-78
2023/03/09 11:22:43;;;;;;;5.63;1.60;;;;;;;;;;5048739;28;20674;-78
2023/03/09 11:25:22;;;;;;;5.80;1.90;;;;;;;;;;5044420;28;20189;-79
2023/03/09 11:27:52;;;;;;;4.93;1.80;;;;;;;;;;5045848;28;20209;-77
2023/03/09 11:30:20;;;;;;;3.60;1.37;;;;;;;;;;5043772;28;20189;-80
2023/03/09 11:32:47;;;;;;;6.70;1.60;;;;;;;;;;5049486;28;20220;-76
2023/03/09 11:35:15;;;;;;;4.03;1.57;;;;;;;;;;5046706;28;20274;-76
2023/03/09 11:37:47;;;;;;;5.73;1.70;;;;;;;;;;5052001;28;20302;-76
2023/03/09 11:40:20;;;;;;;5.53;1.97;;;;;;;;;;5052982;28;20213;-76
2023/03/09 11:42:51;;;;;;;3.90;1.30;;;;;;;;;;5050907;28;20214;-75
2023/03/09 11:45:20;;;;;;;4.80;1.50;;;;;;;;;;5051500;28;20215;-75
2023/03/09 11:47:52;;;;;;;3.70;1.60;;;;;;;;;;5045180;28;20801;-76
2023/03/09 11:50:26;;;;;;;5.70;1.50;;;;;;;;;;5058030;28;20177;-76
2023/03/09 11:52:55;;;;;;;5.53;1.50;;;;;;;;;;5044856;28;20284;-75
2023/03/09 11:55:23;;;;;;;3.37;1.40;;;;;;;;;;5049619;28;20194;-74
2023/03/09 11:57:52;;;;;;;4.37;1.70;;;;;;;;;;5048059;28;20185;-74
2023/03/09 12:00:20;;;;;;;3.70;1.53;;;;;;;;;;5048252;28;20202;-74
2023/03/09 12:03:05;;;;;;;5.90;1.43;;;;;;;;;;5043967;28;20213;-74
2023/03/09 12:05:37;;;;;;;4.20;1.60;;;;;;;;;;5045011;28;20185;-74
2023/03/09 12:08:10;;;;;;;6.10;1.70;;;;;;;;;;5046231;28;20528;-74
2023/03/09 12:11:03;;;;;;;2.70;1.20;;;;;;;;;;5048206;28;20177;-74
2023/03/09 12:13:32;;;;;;;4.13;1.47;;;;;;;;;;5041693;28;20220;-74
2023/03/09 12:16:07;;;;;;;5.00;1.57;;;;;;;;;;5054318;28;20183;-74
2023/03/09 12:18:36;;;;;;;4.43;1.63;;;;;;;;;;5045481;28;20209;-77
2023/03/09 12:21:04;;;;;;;6.27;1.80;;;;;;;;;;5049027;28;20494;-86
2023/03/09 12:23:40;;;;;;;4.03;1.57;;;;;;;;;;5048004;28;20201;-82
2023/03/09 12:26:19;;;;;;;2.83;1.30;;;;;;;;;;5044545;28;20734;-79
2023/03/09 12:28:57;;;;;;;4.57;1.47;;;;;;;;;;5032596;28;20189;-78
2023/03/09 12:31:34;;;;;;;6.97;1.80;;;;;;;;;;5046379;28;20189;-78
2023/03/09 12:34:00;;;;;;;5.00;1.40;;;;;;;;;;5049277;28;20216;-77
2023/03/09 12:36:28;;;;;;;2.63;1.10;;;;;;;;;;5029288;28;20187;-79
2023/03/09 12:39:13;;;;;;;5.23;1.53;;;;;;;;;;5048433;28;20228;-76
2023/03/09 12:41:55;;;;;;;6.83;1.80;;;;;;;;;;5054550;28;20196;-77
2023/03/09 12:44:40;;;;;;;5.30;1.57;;;;;;;;;;5040161;28;20251;-77
2023/03/09 12:47:20;;;;;;;4.50;1.30;;;;;;;;;;5046802;28;20189;-77
2023/03/09 12:49:49;;;;;;;3.43;1.17;;;;;;;;;;5046989;28;20334;-77
2023/03/09 12:52:26;;;;;;;4.07;1.50;;;;;;;;;;5030050;28;20274;-77
2023/03/09 12:55:03;;;;;;;6.20;1.57;;;;;;;;;;5045305;28;20189;-76
2023/03/09 12:57:30;;;;;;;5.80;1.53;;;;;;;;;;5051346;28;20182;-75
2023/03/09 12:59:56;;;;;;;4.17;1.70;;;;;;;;;;5049586;28;20201;-75
2023/03/09 13:02:27;;;;;;;4.00;1.40;;;;;;;;;;5046531;28;20681;-78
2023/03/09 13:05:32;;;;;;;4.50;1.60;;;;;;;;;;5047685;28;20572;-76
2023/03/09 13:08:06;;;;;;;3.83;1.47;;;;;;;;;;4975918;28;20271;-77
2023/03/09 13:10:35;;;;;;;3.70;1.60;;;;;;;;;;4986841;28;20257;-78
2023/03/09 13:13:20;;;;;;;4.07;1.97;;;;;;;;;;5023872;28;20221;-78
2023/03/09 13:15:46;;;;;;;2.40;1.10;;;;;;;;;;5028868;28;20185;-77
2023/03/09 13:18:23;;;;;;;4.40;1.10;;;;;;;;;;5048177;28;20197;-76
2023/03/09 13:20:49;;;;;;;3.30;1.30;;;;;;;;;;5044592;28;20178;-76
2023/03/09 13:23:17;;;;;;;2.80;1.40;;;;;;;;;;5046938;28;20206;-76
2023/03/09 13:25:48;;;;;;;3.47;2.77;;;;;;;;;;5046213;28;20224;-76
2023/03/09 13:28:24;;;;;;;1.43;1.10;;;;;;;;;;5042555;28;20680;-76
2023/03/09 13:30:51;;;;;;;2.03;1.30;;;;;;;;;;5046665;28;22011;-77
2023/03/09 13:33:18;;;;;;;1.53;1.40;;;;;;;;;;5041726;28;20728;-77
2023/03/09 13:35:49;;;;;;;1.17;0.80;;;;;;;;;;5046631;28;20589;-76
2023/03/09 13:38:20;;;;;;;4.10;1.30;;;;;;;;;;5045610;28;20469;-77
2023/03/09 13:40:53;;;;;;;1.97;1.30;;;;;;;;;;5048524;28;20681;-76
2023/03/09 13:43:25;;;;;;;1.17;0.90;;;;;;;;;;5045350;28;20243;-76
2023/03/09 13:46:01;;;;;;;1.93;1.47;;;;;;;;;;5045592;28;20186;-76
2023/03/09 13:48:27;;;;;;;5.50;3.17;;;;;;;;;;5045972;28;20173;-76
2023/03/09 13:50:54;;;;;;;5.27;2.47;;;;;;;;;;5044524;28;20200;-77
2023/03/09 13:53:23;;;;;;;3.80;2.00;;;;;;;;;;5042536;28;20531;-76
2023/03/09 13:55:55;;;;;;;4.30;2.20;;;;;;;;;;5046085;28;20216;-77
2023/03/09 13:58:22;;;;;;;3.80;1.70;;;;;;;;;;5045752;28;20279;-76
2023/03/09 14:00:52;;;;;;;5.00;1.50;;;;;;;;;;5047743;28;20527;-77
2023/03/09 14:03:18;;;;;;;4.40;1.37;;;;;;;;;;5045655;28;20557;-77
2023/03/09 14:05:53;;;;;;;4.63;1.70;;;;;;;;;;5048690;28;20185;-77
2023/03/09 14:08:21;;;;;;;4.03;1.60;;;;;;;;;;5045143;28;20199;-77
2023/03/09 14:10:48;;;;;;;4.77;1.50;;;;;;;;;;5044668;28;20218;-78
2023/03/09 14:13:16;;;;;;;5.20;1.73;;;;;;;;;;5046092;28;20210;-77
2023/03/09 14:15:43;;;;;;;4.77;2.40;;;;;;;;;;5047747;28;20208;-77
2023/03/09 14:18:23;;;;;;;4.63;2.23;;;;;;;;;;5044562;28;20620;-77
2023/03/09 14:20:49;;;;;;;7.17;2.50;;;;;;;;;;5040652;28;20723;-78
2023/03/09 14:23:16;;;;;;;3.97;1.40;;;;;;;;;;5048717;28;20239;-77
2023/03/09 14:25:43;;;;;;;3.27;1.57;;;;;;;;;;5049011;28;20178;-78
2023/03/09 14:28:28;;;;;;;4.43;1.80;;;;;;;;;;5049317;28;20387;-78
2023/03/09 14:30:55;;;;;;;6.27;1.80;;;;;;;;;;5032467;28;20178;-77
2023/03/09 14:33:32;;;;;;;8.83;3.23;;;;;;;;;;5048407;28;20224;-78
2023/03/09 14:36:10;;;;;;;7.07;1.67;;;;;;;;;;5043626;28;20207;-78
2023/03/09 14:38:39;;;;;;;5.47;2.20;;;;;;;;;;5047388;28;20213;-77
2023/03/09 14:41:13;;;;;;;5.17;1.73;;;;;;;;;;5045692;28;20220;-77
2023/03/09 14:43:42;;;;;;;5.70;1.70;;;;;;;;;;5045772;28;20201;-76
2023/03/09 14:46:09;;;;;;;4.73;1.80;;;;;;;;;;5052142;28;20170;-77
2023/03/09 14:48:36;;;;;;;3.83;1.40;;;;;;;;;;5038411;28;20862;-75
2023/03/09 14:51:05;;;;;;;4.63;1.50;;;;;;;;;;5053939;28;20201;-75
2023/03/09 14:53:31;;;;;;;4.57;1.90;;;;;;;;;;5042326;28;20304;-76